AFL1731 UHPP-UUEE
Flight info
| Callsign | AFL1731 |
|---|---|
| Flight time | N/A |
| Altitude | 34000 |
| Route | BAKEN4L BAKEN A812 OKMUT/K0893F360 A812 OLEGA T411 LABAR M131 DIRPU/K0898F380 M131 AMEGO P65 ROMTA ROMTA3E |
| Aircraft | B77W/H-SDE1E2E3FGHIJ2J3J4J5M1RWXY/LB1D1 |
Departure
| Time | N/A |
|---|---|
| Airport | Yelizovo Airport (UHPP) |
Arrival
| Time | 2026-05-06 06:40 |
|---|---|
| Airport | Sheremetyevo International Airport (UUEE) |
| Time | Latitude | Longitude | Altitude | Speed | Heading |
|---|---|---|---|---|---|
| 2026-05-06 06:00 | 59.05682 | 39.35242 | 37745 ft | 412 kts | 220° |
| 2026-05-06 06:00 | 59.01006 | 39.28734 | 37770 ft | 415 kts | 219° |
| 2026-05-06 06:01 | 58.96331 | 39.22253 | 37764 ft | 413 kts | 220° |
| 2026-05-06 06:01 | 58.91679 | 39.15824 | 37774 ft | 412 kts | 219° |
| 2026-05-06 06:02 | 58.87013 | 39.09398 | 37763 ft | 411 kts | 219° |
| 2026-05-06 06:02 | 58.82369 | 39.03023 | 37770 ft | 412 kts | 219° |
| 2026-05-06 06:03 | 58.77703 | 38.96639 | 37844 ft | 414 kts | 219° |
| 2026-05-06 06:03 | 58.75362 | 38.93446 | 37600 ft | 413 kts | 219° |
| 2026-05-06 06:03 | 58.73043 | 38.90290 | 37756 ft | 411 kts | 219° |
| 2026-05-06 06:04 | 58.68272 | 38.84060 | 37778 ft | 415 kts | 217° |
| 2026-05-06 06:04 | 58.63411 | 38.78101 | 37778 ft | 414 kts | 217° |
| 2026-05-06 06:05 | 58.58577 | 38.72171 | 37780 ft | 414 kts | 217° |
| 2026-05-06 06:05 | 58.53735 | 38.66236 | 37780 ft | 414 kts | 217° |
| 2026-05-06 06:06 | 58.48924 | 38.60351 | 37782 ft | 413 kts | 217° |
| 2026-05-06 06:06 | 58.44062 | 38.54418 | 37788 ft | 415 kts | 217° |
| 2026-05-06 06:07 | 58.39485 | 38.48852 | 37777 ft | 416 kts | 217° |
| 2026-05-06 06:07 | 58.34599 | 38.42927 | 37773 ft | 416 kts | 217° |
| 2026-05-06 06:08 | 58.29707 | 38.37015 | 37779 ft | 417 kts | 217° |
| 2026-05-06 06:08 | 58.24831 | 38.31142 | 37793 ft | 415 kts | 216° |
| 2026-05-06 06:09 | 58.19962 | 38.25296 | 37797 ft | 415 kts | 216° |
| 2026-05-06 06:09 | 58.15098 | 38.19476 | 37750 ft | 411 kts | 216° |
| 2026-05-06 06:10 | 58.12710 | 38.16627 | 37266 ft | 409 kts | 216° |
| 2026-05-06 06:10 | 58.10308 | 38.13762 | 36510 ft | 413 kts | 216° |
| 2026-05-06 06:10 | 58.07857 | 38.10843 | 35927 ft | 418 kts | 216° |
| 2026-05-06 06:10 | 58.05392 | 38.07912 | 35274 ft | 426 kts | 216° |
| 2026-05-06 06:11 | 58.02853 | 38.04898 | 34202 ft | 435 kts | 216° |
| 2026-05-06 06:11 | 58.00300 | 38.01875 | 33214 ft | 438 kts | 216° |
| 2026-05-06 06:11 | 57.97731 | 37.98840 | 32344 ft | 438 kts | 216° |
| 2026-05-06 06:11 | 57.95152 | 37.95798 | 31483 ft | 439 kts | 216° |
| 2026-05-06 06:12 | 57.92580 | 37.92770 | 30627 ft | 438 kts | 216° |
| 2026-05-06 06:12 | 57.90024 | 37.89767 | 30072 ft | 431 kts | 216° |
| 2026-05-06 06:12 | 57.87511 | 37.86821 | 29626 ft | 422 kts | 216° |
| 2026-05-06 06:12 | 57.85028 | 37.84032 | 29130 ft | 417 kts | 211° |
| 2026-05-06 06:13 | 57.82360 | 37.81952 | 28601 ft | 417 kts | 202° |
| 2026-05-06 06:13 | 57.79538 | 37.80753 | 28075 ft | 417 kts | 193° |
| 2026-05-06 06:13 | 57.76671 | 37.80211 | 27549 ft | 414 kts | 191° |
| 2026-05-06 06:13 | 57.73834 | 37.79769 | 27035 ft | 408 kts | 191° |
| 2026-05-06 06:14 | 57.71037 | 37.79347 | 26520 ft | 403 kts | 191° |
| 2026-05-06 06:14 | 57.68253 | 37.78930 | 26023 ft | 411 kts | 191° |
| 2026-05-06 06:14 | 57.65368 | 37.78498 | 25479 ft | 421 kts | 190° |
| 2026-05-06 06:14 | 57.62478 | 37.78082 | 24943 ft | 417 kts | 190° |
| 2026-05-06 06:15 | 57.59618 | 37.77675 | 24398 ft | 411 kts | 190° |
| 2026-05-06 06:15 | 57.56801 | 37.77275 | 23862 ft | 406 kts | 190° |
| 2026-05-06 06:15 | 57.54019 | 37.76881 | 23336 ft | 401 kts | 190° |
| 2026-05-06 06:15 | 57.51268 | 37.76492 | 22802 ft | 396 kts | 190° |
| 2026-05-06 06:16 | 57.48551 | 37.76108 | 22279 ft | 392 kts | 190° |
| 2026-05-06 06:16 | 57.45860 | 37.75730 | 21764 ft | 387 kts | 190° |
| 2026-05-06 06:16 | 57.43199 | 37.75381 | 21242 ft | 384 kts | 190° |
| 2026-05-06 06:16 | 57.40561 | 37.75039 | 20713 ft | 380 kts | 190° |
| 2026-05-06 06:17 | 57.37944 | 37.74700 | 20192 ft | 377 kts | 190° |
| 2026-05-06 06:17 | 57.35352 | 37.74364 | 19679 ft | 376 kts | 190° |
| 2026-05-06 06:17 | 57.32715 | 37.74016 | 19148 ft | 387 kts | 190° |
| 2026-05-06 06:17 | 57.30039 | 37.73670 | 18599 ft | 386 kts | 190° |
| 2026-05-06 06:18 | 57.27380 | 37.73329 | 18078 ft | 383 kts | 189° |
| 2026-05-06 06:18 | 57.24752 | 37.72991 | 17551 ft | 379 kts | 189° |
| 2026-05-06 06:18 | 57.22145 | 37.72656 | 17019 ft | 376 kts | 189° |
| 2026-05-06 06:18 | 57.19559 | 37.72324 | 16464 ft | 373 kts | 189° |
| 2026-05-06 06:19 | 57.17001 | 37.71996 | 16063 ft | 365 kts | 189° |
| 2026-05-06 06:19 | 57.14532 | 37.71685 | 15984 ft | 349 kts | 189° |
| 2026-05-06 06:19 | 57.12158 | 37.71380 | 15876 ft | 335 kts | 191° |
| 2026-05-06 06:19 | 57.09966 | 37.70495 | 15726 ft | 315 kts | 204° |
| 2026-05-06 06:20 | 57.07930 | 37.69067 | 15497 ft | 315 kts | 206° |
| 2026-05-06 06:20 | 57.05912 | 37.67574 | 15253 ft | 313 kts | 207° |
| 2026-05-06 06:20 | 57.03904 | 37.66078 | 15015 ft | 312 kts | 207° |
| 2026-05-06 06:20 | 57.01907 | 37.64592 | 14802 ft | 310 kts | 207° |
| 2026-05-06 06:21 | 56.99922 | 37.63118 | 14640 ft | 308 kts | 207° |
| 2026-05-06 06:21 | 56.97935 | 37.61644 | 14463 ft | 309 kts | 207° |
| 2026-05-06 06:21 | 56.95954 | 37.60178 | 14230 ft | 307 kts | 207° |
| 2026-05-06 06:21 | 56.93973 | 37.58713 | 14008 ft | 306 kts | 207° |
| 2026-05-06 06:22 | 56.92009 | 37.57262 | 13786 ft | 305 kts | 206° |
| 2026-05-06 06:22 | 56.90049 | 37.55815 | 13582 ft | 304 kts | 206° |
| 2026-05-06 06:22 | 56.88102 | 37.54381 | 13358 ft | 301 kts | 206° |
| 2026-05-06 06:22 | 56.86164 | 37.52954 | 13118 ft | 300 kts | 206° |
| 2026-05-06 06:23 | 56.84231 | 37.51531 | 12909 ft | 300 kts | 207° |
| 2026-05-06 06:23 | 56.82341 | 37.50147 | 12852 ft | 286 kts | 207° |
| 2026-05-06 06:23 | 56.80542 | 37.48830 | 12779 ft | 274 kts | 207° |
| 2026-05-06 06:23 | 56.78789 | 37.47543 | 12444 ft | 272 kts | 207° |
| 2026-05-06 06:24 | 56.77060 | 37.46274 | 12234 ft | 264 kts | 207° |
| 2026-05-06 06:24 | 56.75404 | 37.45066 | 12189 ft | 251 kts | 207° |
| 2026-05-06 06:24 | 56.73804 | 37.43895 | 11927 ft | 247 kts | 207° |
| 2026-05-06 06:24 | 56.72210 | 37.42727 | 11590 ft | 247 kts | 207° |
| 2026-05-06 06:25 | 56.70621 | 37.41567 | 11221 ft | 247 kts | 207° |
| 2026-05-06 06:25 | 56.69039 | 37.40413 | 10896 ft | 245 kts | 207° |
| 2026-05-06 06:25 | 56.65840 | 37.38401 | 10215 ft | 250 kts | 191° |
| 2026-05-06 06:26 | 56.64090 | 37.38724 | 9880 ft | 258 kts | 174° |
| 2026-05-06 06:26 | 56.62361 | 37.39491 | 9568 ft | 257 kts | 174° |
| 2026-05-06 06:26 | 56.60628 | 37.40281 | 9189 ft | 258 kts | 173° |
| 2026-05-06 06:26 | 56.58901 | 37.41068 | 8896 ft | 256 kts | 173° |
| 2026-05-06 06:27 | 56.57183 | 37.41851 | 8568 ft | 255 kts | 173° |
| 2026-05-06 06:27 | 56.55462 | 37.42621 | 8226 ft | 254 kts | 176° |
| 2026-05-06 06:27 | 56.53730 | 37.42687 | 7808 ft | 249 kts | 191° |
| 2026-05-06 06:27 | 56.52047 | 37.42340 | 7703 ft | 237 kts | 193° |
| 2026-05-06 06:28 | 56.50432 | 37.41994 | 7522 ft | 232 kts | 193° |
| 2026-05-06 06:28 | 56.48836 | 37.41651 | 7261 ft | 231 kts | 193° |
| 2026-05-06 06:28 | 56.47238 | 37.41301 | 7015 ft | 233 kts | 193° |
| 2026-05-06 06:28 | 56.45636 | 37.40946 | 6759 ft | 232 kts | 193° |
| 2026-05-06 06:29 | 56.44039 | 37.40591 | 6506 ft | 231 kts | 193° |
| 2026-05-06 06:29 | 56.42402 | 37.40255 | 6256 ft | 252 kts | 187° |
| 2026-05-06 06:29 | 56.40624 | 37.40916 | 5989 ft | 272 kts | 162° |
| 2026-05-06 06:29 | 56.38880 | 37.42348 | 5853 ft | 276 kts | 160° |
| 2026-05-06 06:30 | 56.37147 | 37.43835 | 5722 ft | 276 kts | 160° |
| 2026-05-06 06:30 | 56.35412 | 37.45325 | 5601 ft | 277 kts | 160° |
| 2026-05-06 06:30 | 56.33679 | 37.46813 | 5471 ft | 277 kts | 160° |
| 2026-05-06 06:30 | 56.31947 | 37.48298 | 5337 ft | 276 kts | 160° |
| 2026-05-06 06:31 | 56.30215 | 37.49782 | 5199 ft | 276 kts | 159° |
| 2026-05-06 06:31 | 56.28484 | 37.51263 | 5079 ft | 276 kts | 159° |
| 2026-05-06 06:31 | 56.26754 | 37.52743 | 4972 ft | 275 kts | 159° |
| 2026-05-06 06:31 | 56.25023 | 37.54221 | 4960 ft | 275 kts | 159° |
| 2026-05-06 06:32 | 56.23290 | 37.55699 | 4958 ft | 276 kts | 159° |
| 2026-05-06 06:32 | 56.21562 | 37.57172 | 4953 ft | 273 kts | 159° |
| 2026-05-06 06:32 | 56.19924 | 37.58737 | 4910 ft | 263 kts | 147° |
| 2026-05-06 06:32 | 56.18577 | 37.60882 | 4833 ft | 255 kts | 139° |
| 2026-05-06 06:33 | 56.17347 | 37.63120 | 4722 ft | 250 kts | 138° |
| 2026-05-06 06:33 | 56.16136 | 37.65351 | 4604 ft | 249 kts | 138° |
| 2026-05-06 06:33 | 56.14931 | 37.67566 | 4489 ft | 248 kts | 138° |
| 2026-05-06 06:33 | 56.13723 | 37.69782 | 4372 ft | 248 kts | 138° |
| 2026-05-06 06:34 | 56.12519 | 37.71988 | 4253 ft | 248 kts | 138° |
| 2026-05-06 06:34 | 56.11321 | 37.74181 | 4140 ft | 243 kts | 138° |
| 2026-05-06 06:34 | 56.10070 | 37.76070 | 4014 ft | 229 kts | 158° |
| 2026-05-06 06:34 | 56.08613 | 37.76756 | 3905 ft | 209 kts | 184° |
| 2026-05-06 06:35 | 56.07214 | 37.76483 | 3787 ft | 199 kts | 197° |
| 2026-05-06 06:35 | 56.05885 | 37.75860 | 3669 ft | 196 kts | 202° |
| 2026-05-06 06:35 | 56.04584 | 37.75131 | 3555 ft | 195 kts | 203° |
| 2026-05-06 06:35 | 56.03304 | 37.74398 | 3435 ft | 190 kts | 204° |
| 2026-05-06 06:36 | 56.02200 | 37.73298 | 3324 ft | 179 kts | 224° |
| 2026-05-06 06:36 | 56.01542 | 37.71501 | 3218 ft | 173 kts | 254° |
| 2026-05-06 06:36 | 56.01249 | 37.69401 | 3163 ft | 174 kts | 258° |
| 2026-05-06 06:36 | 56.00961 | 37.67294 | 3112 ft | 175 kts | 257° |
| 2026-05-06 06:37 | 56.00652 | 37.65176 | 2920 ft | 176 kts | 257° |
| 2026-05-06 06:37 | 56.00344 | 37.63091 | 2697 ft | 171 kts | 257° |
| 2026-05-06 06:37 | 56.00046 | 37.61066 | 2480 ft | 166 kts | 257° |
| 2026-05-06 06:37 | 55.99756 | 37.59114 | 2276 ft | 157 kts | 257° |
| 2026-05-06 06:38 | 55.99482 | 37.57262 | 2074 ft | 157 kts | 259° |
| 2026-05-06 06:38 | 55.99210 | 37.55405 | 1868 ft | 150 kts | 259° |
| 2026-05-06 06:38 | 55.98958 | 37.53711 | 1674 ft | 134 kts | 258° |
| 2026-05-06 06:38 | 55.98719 | 37.52118 | 1503 ft | 133 kts | 258° |
| 2026-05-06 06:39 | 55.98481 | 37.50467 | 1327 ft | 137 kts | 256° |
| 2026-05-06 06:39 | 55.98233 | 37.48833 | 1141 ft | 138 kts | 256° |
| 2026-05-06 06:39 | 55.97988 | 37.47173 | 972 ft | 139 kts | 256° |
| 2026-05-06 06:39 | 55.97740 | 37.45532 | 790 ft | 135 kts | 257° |
| 2026-05-06 06:40 | 55.97491 | 37.43855 | 625 ft | 145 kts | 258° |
| 2026-05-06 06:40 | 55.97256 | 37.42276 | 618 ft | 113 kts | 255° |
| 2026-05-06 06:40 | 55.97096 | 37.41196 | 624 ft | 64 kts | 255° |
| 2026-05-06 06:40 | 55.97006 | 37.40595 | 623 ft | 44 kts | 255° |
| 2026-05-06 06:41 | 55.96952 | 37.40233 | 624 ft | 20 kts | 257° |
| 2026-05-06 06:41 | 55.96939 | 37.40116 | 625 ft | 7 kts | 273° |
| 2026-05-06 06:41 | 55.96970 | 37.40052 | 625 ft | 8 kts | 336° |
| 2026-05-06 06:41 | 55.97038 | 37.40016 | 626 ft | 11 kts | 345° |
| 2026-05-06 06:42 | 55.97126 | 37.39975 | 628 ft | 14 kts | 345° |
| 2026-05-06 06:42 | 55.97231 | 37.39924 | 628 ft | 15 kts | 345° |
| 2026-05-06 06:42 | 55.97326 | 37.39876 | 625 ft | 14 kts | 345° |
| 2026-05-06 06:42 | 55.97416 | 37.39834 | 622 ft | 10 kts | 346° |
| 2026-05-06 06:43 | 55.97462 | 37.39878 | 621 ft | 10 kts | 74° |
| 2026-05-06 06:43 | 55.97485 | 37.40029 | 623 ft | 14 kts | 76° |
| 2026-05-06 06:43 | 55.97512 | 37.40212 | 627 ft | 16 kts | 76° |
| 2026-05-06 06:43 | 55.97545 | 37.40435 | 627 ft | 20 kts | 75° |
| 2026-05-06 06:44 | 55.97573 | 37.40619 | 628 ft | 12 kts | 77° |
| 2026-05-06 06:44 | 55.97593 | 37.40767 | 629 ft | 11 kts | 77° |
| 2026-05-06 06:44 | 55.97626 | 37.40889 | 629 ft | 10 kts | 37° |
| 2026-05-06 06:44 | 55.97689 | 37.40901 | 630 ft | 9 kts | 345° |
| 2026-05-06 06:45 | 55.97773 | 37.40858 | 631 ft | 14 kts | 344° |
| 2026-05-06 06:45 | 55.97827 | 37.40832 | 632 ft | 4 kts | 345° |
| 2026-05-06 06:45 | 55.97855 | 37.40842 | 632 ft | 4 kts | 46° |
| 2026-05-06 06:45 | 55.97869 | 37.40917 | 632 ft | 6 kts | 75° |
| 2026-05-06 06:46 | 55.97876 | 37.40965 | 632 ft | 2 kts | 75° |
| 2026-05-06 06:46 | 55.97878 | 37.40975 | 632 ft | 0 kts | 75° |